sensor_id;sensor_type;location;lat;lon;timestamp;P1;durP1;ratioP1;P2;durP2;ratioP2
20533;SDS011;12929;56.822;26.056;2023-08-06T00:01:13;9.77;;;6.20;;
20533;SDS011;12929;56.822;26.056;2023-08-06T00:03:41;9.77;;;6.63;;
20533;SDS011;12929;56.822;26.056;2023-08-06T00:06:09;12.45;;;5.53;;
20533;SDS011;12929;56.822;26.056;2023-08-06T00:08:36;9.05;;;6.70;;
20533;SDS011;12929;56.822;26.056;2023-08-06T00:11:04;8.02;;;6.40;;
20533;SDS011;12929;56.822;26.056;2023-08-06T00:13:32;11.30;;;6.50;;
20533;SDS011;12929;56.822;26.056;2023-08-06T00:16:12;8.57;;;6.72;;
20533;SDS011;12929;56.822;26.056;2023-08-06T00:18:40;6.97;;;5.68;;
20533;SDS011;12929;56.822;26.056;2023-08-06T00:21:07;9.48;;;6.30;;
20533;SDS011;12929;56.822;26.056;2023-08-06T00:23:35;9.38;;;6.60;;
20533;SDS011;12929;56.822;26.056;2023-08-06T00:26:03;10.48;;;7.10;;
20533;SDS011;12929;56.822;26.056;2023-08-06T00:28:30;10.77;;;7.03;;
20533;SDS011;12929;56.822;26.056;2023-08-06T00:30:58;10.30;;;7.07;;
20533;SDS011;12929;56.822;26.056;2023-08-06T00:33:25;11.00;;;8.20;;
20533;SDS011;12929;56.822;26.056;2023-08-06T00:35:53;8.82;;;6.28;;
20533;SDS011;12929;56.822;26.056;2023-08-06T00:38:20;10.30;;;7.35;;
20533;SDS011;12929;56.822;26.056;2023-08-06T00:40:48;8.70;;;6.90;;
20533;SDS011;12929;56.822;26.056;2023-08-06T00:43:15;11.40;;;6.95;;
20533;SDS011;12929;56.822;26.056;2023-08-06T00:45:44;9.95;;;7.93;;
20533;SDS011;12929;56.822;26.056;2023-08-06T00:48:12;9.15;;;7.57;;
20533;SDS011;12929;56.822;26.056;2023-08-06T00:50:39;10.55;;;7.72;;
20533;SDS011;12929;56.822;26.056;2023-08-06T00:53:07;10.13;;;8.00;;
20533;SDS011;12929;56.822;26.056;2023-08-06T00:55:35;10.63;;;8.73;;
20533;SDS011;12929;56.822;26.056;2023-08-06T00:58:03;10.05;;;7.32;;
20533;SDS011;12929;56.822;26.056;2023-08-06T01:00:31;11.55;;;7.30;;
20533;SDS011;12929;56.822;26.056;2023-08-06T01:02:58;10.30;;;7.15;;
20533;SDS011;12929;56.822;26.056;2023-08-06T01:05:26;9.80;;;7.68;;
20533;SDS011;12929;56.822;26.056;2023-08-06T01:11:00;12.35;;;8.43;;
20533;SDS011;12929;56.822;26.056;2023-08-06T01:13:47;12.55;;;9.73;;
20533;SDS011;12929;56.822;26.056;2023-08-06T01:16:19;14.32;;;9.02;;
20533;SDS011;12929;56.822;26.056;2023-08-06T01:18:48;12.45;;;10.07;;
20533;SDS011;12929;56.822;26.056;2023-08-06T01:21:16;13.18;;;9.32;;
20533;SDS011;12929;56.822;26.056;2023-08-06T01:23:45;12.07;;;9.43;;
20533;SDS011;12929;56.822;26.056;2023-08-06T01:26:16;13.85;;;10.25;;
20533;SDS011;12929;56.822;26.056;2023-08-06T01:29:11;10.95;;;8.68;;
20533;SDS011;12929;56.822;26.056;2023-08-06T01:31:53;10.55;;;8.05;;
20533;SDS011;12929;56.822;26.056;2023-08-06T01:34:27;14.48;;;8.80;;
20533;SDS011;12929;56.822;26.056;2023-08-06T01:36:58;14.75;;;10.02;;
20533;SDS011;12929;56.822;26.056;2023-08-06T01:39:27;9.77;;;8.10;;
20533;SDS011;12929;56.822;26.056;2023-08-06T01:41:55;10.30;;;8.45;;
20533;SDS011;12929;56.822;26.056;2023-08-06T01:44:22;12.30;;;9.13;;
20533;SDS011;12929;56.822;26.056;2023-08-06T01:46:51;13.50;;;10.00;;
20533;SDS011;12929;56.822;26.056;2023-08-06T01:49:19;11.90;;;9.25;;
20533;SDS011;12929;56.822;26.056;2023-08-06T01:51:46;11.68;;;8.82;;
20533;SDS011;12929;56.822;26.056;2023-08-06T01:54:14;15.75;;;11.27;;
20533;SDS011;12929;56.822;26.056;2023-08-06T01:56:43;11.85;;;9.63;;
20533;SDS011;12929;56.822;26.056;2023-08-06T01:59:10;11.85;;;9.68;;
20533;SDS011;12929;56.822;26.056;2023-08-06T02:01:38;14.18;;;10.95;;
20533;SDS011;12929;56.822;26.056;2023-08-06T02:04:07;11.18;;;8.25;;
20533;SDS011;12929;56.822;26.056;2023-08-06T02:06:35;13.27;;;10.73;;
20533;SDS011;12929;56.822;26.056;2023-08-06T02:09:02;12.70;;;8.98;;
20533;SDS011;12929;56.822;26.056;2023-08-06T02:11:30;13.15;;;8.60;;
20533;SDS011;12929;56.822;26.056;2023-08-06T02:13:57;13.35;;;9.05;;
20533;SDS011;12929;56.822;26.056;2023-08-06T02:16:25;13.27;;;10.48;;
20533;SDS011;12929;56.822;26.056;2023-08-06T02:18:53;13.27;;;10.32;;
20533;SDS011;12929;56.822;26.056;2023-08-06T02:21:20;15.45;;;9.55;;
20533;SDS011;12929;56.822;26.056;2023-08-06T02:23:48;12.50;;;8.07;;
20533;SDS011;12929;56.822;26.056;2023-08-06T02:26:15;16.58;;;10.25;;
20533;SDS011;12929;56.822;26.056;2023-08-06T02:28:44;15.70;;;9.35;;
20533;SDS011;12929;56.822;26.056;2023-08-06T02:31:13;13.32;;;10.45;;
20533;SDS011;12929;56.822;26.056;2023-08-06T02:33:41;9.07;;;6.80;;
20533;SDS011;12929;56.822;26.056;2023-08-06T02:36:09;14.82;;;9.93;;
20533;SDS011;12929;56.822;26.056;2023-08-06T02:38:37;12.80;;;9.13;;
20533;SDS011;12929;56.822;26.056;2023-08-06T02:41:04;12.75;;;9.65;;
20533;SDS011;12929;56.822;26.056;2023-08-06T02:43:32;8.60;;;7.47;;
20533;SDS011;12929;56.822;26.056;2023-08-06T02:46:00;11.90;;;9.23;;
20533;SDS011;12929;56.822;26.056;2023-08-06T02:48:28;10.45;;;8.75;;
20533;SDS011;12929;56.822;26.056;2023-08-06T02:50:59;11.57;;;9.07;;
20533;SDS011;12929;56.822;26.056;2023-08-06T02:53:29;12.43;;;8.80;;
20533;SDS011;12929;56.822;26.056;2023-08-06T02:55:59;12.70;;;8.80;;
20533;SDS011;12929;56.822;26.056;2023-08-06T02:58:35;10.82;;;7.70;;
20533;SDS011;12929;56.822;26.056;2023-08-06T03:01:12;9.63;;;7.93;;
20533;SDS011;12929;56.822;26.056;2023-08-06T03:03:49;9.60;;;7.63;;
20533;SDS011;12929;56.822;26.056;2023-08-06T03:06:25;9.35;;;7.20;;
20533;SDS011;12929;56.822;26.056;2023-08-06T03:08:55;9.38;;;7.47;;
20533;SDS011;12929;56.822;26.056;2023-08-06T03:11:24;10.23;;;7.88;;
20533;SDS011;12929;56.822;26.056;2023-08-06T03:13:56;9.10;;;8.10;;
20533;SDS011;12929;56.822;26.056;2023-08-06T03:16:23;10.25;;;8.10;;
20533;SDS011;12929;56.822;26.056;2023-08-06T03:18:51;12.77;;;9.30;;
20533;SDS011;12929;56.822;26.056;2023-08-06T03:21:20;11.27;;;8.88;;
20533;SDS011;12929;56.822;26.056;2023-08-06T03:23:47;9.02;;;7.32;;
20533;SDS011;12929;56.822;26.056;2023-08-06T03:26:19;10.35;;;8.25;;
20533;SDS011;12929;56.822;26.056;2023-08-06T03:28:46;8.93;;;7.80;;
20533;SDS011;12929;56.822;26.056;2023-08-06T03:31:16;9.20;;;7.20;;
20533;SDS011;12929;56.822;26.056;2023-08-06T03:33:44;10.18;;;7.78;;
20533;SDS011;12929;56.822;26.056;2023-08-06T03:36:15;10.32;;;8.77;;
20533;SDS011;12929;56.822;26.056;2023-08-06T03:38:42;8.88;;;6.82;;
20533;SDS011;12929;56.822;26.056;2023-08-06T03:41:12;12.15;;;7.95;;
20533;SDS011;12929;56.822;26.056;2023-08-06T03:43:40;10.05;;;8.27;;
20533;SDS011;12929;56.822;26.056;2023-08-06T03:46:13;8.82;;;7.63;;
20533;SDS011;12929;56.822;26.056;2023-08-06T03:48:41;9.68;;;7.93;;
20533;SDS011;12929;56.822;26.056;2023-08-06T03:51:09;10.55;;;6.63;;
20533;SDS011;12929;56.822;26.056;2023-08-06T03:53:37;11.57;;;7.07;;
20533;SDS011;12929;56.822;26.056;2023-08-06T03:56:05;8.60;;;6.30;;
20533;SDS011;12929;56.822;26.056;2023-08-06T03:58:33;10.55;;;8.20;;
20533;SDS011;12929;56.822;26.056;2023-08-06T04:01:01;8.48;;;7.55;;
20533;SDS011;12929;56.822;26.056;2023-08-06T04:03:47;10.32;;;8.02;;
20533;SDS011;12929;56.822;26.056;2023-08-06T04:06:15;10.43;;;7.32;;
20533;SDS011;12929;56.822;26.056;2023-08-06T04:08:43;10.80;;;7.10;;
20533;SDS011;12929;56.822;26.056;2023-08-06T04:11:10;12.45;;;7.05;;
20533;SDS011;12929;56.822;26.056;2023-08-06T04:13:43;10.73;;;8.05;;
20533;SDS011;12929;56.822;26.056;2023-08-06T04:16:11;8.93;;;7.35;;
20533;SDS011;12929;56.822;26.056;2023-08-06T04:18:41;9.10;;;7.60;;
20533;SDS011;12929;56.822;26.056;2023-08-06T04:21:09;11.65;;;8.95;;
20533;SDS011;12929;56.822;26.056;2023-08-06T04:23:36;10.70;;;7.70;;
20533;SDS011;12929;56.822;26.056;2023-08-06T04:26:06;10.40;;;7.78;;
20533;SDS011;12929;56.822;26.056;2023-08-06T04:28:35;12.13;;;8.23;;
20533;SDS011;12929;56.822;26.056;2023-08-06T04:31:02;12.90;;;8.27;;
20533;SDS011;12929;56.822;26.056;2023-08-06T04:33:32;13.45;;;6.95;;
20533;SDS011;12929;56.822;26.056;2023-08-06T04:36:05;12.15;;;7.40;;
20533;SDS011;12929;56.822;26.056;2023-08-06T04:38:34;11.35;;;9.27;;
20533;SDS011;12929;56.822;26.056;2023-08-06T04:41:04;10.68;;;7.60;;
20533;SDS011;12929;56.822;26.056;2023-08-06T04:43:32;11.13;;;8.30;;
20533;SDS011;12929;56.822;26.056;2023-08-06T04:45:59;10.43;;;8.45;;
20533;SDS011;12929;56.822;26.056;2023-08-06T04:48:27;12.00;;;8.00;;
20533;SDS011;12929;56.822;26.056;2023-08-06T04:50:54;10.10;;;8.00;;
20533;SDS011;12929;56.822;26.056;2023-08-06T04:53:22;10.85;;;8.00;;
20533;SDS011;12929;56.822;26.056;2023-08-06T04:55:49;10.60;;;7.18;;
20533;SDS011;12929;56.822;26.056;2023-08-06T04:58:17;10.43;;;7.40;;
20533;SDS011;12929;56.822;26.056;2023-08-06T05:00:44;12.32;;;8.63;;
20533;SDS011;12929;56.822;26.056;2023-08-06T05:03:11;10.82;;;8.80;;
20533;SDS011;12929;56.822;26.056;2023-08-06T05:05:42;14.15;;;8.50;;
20533;SDS011;12929;56.822;26.056;2023-08-06T05:08:13;10.43;;;8.85;;
20533;SDS011;12929;56.822;26.056;2023-08-06T05:10:45;10.77;;;8.15;;
20533;SDS011;12929;56.822;26.056;2023-08-06T05:13:13;10.18;;;8.20;;
20533;SDS011;12929;56.822;26.056;2023-08-06T05:15:41;14.20;;;9.65;;
20533;SDS011;12929;56.822;26.056;2023-08-06T05:18:09;12.30;;;9.40;;
20533;SDS011;12929;56.822;26.056;2023-08-06T05:20:39;14.13;;;9.05;;
20533;SDS011;12929;56.822;26.056;2023-08-06T05:23:07;12.60;;;9.88;;
20533;SDS011;12929;56.822;26.056;2023-08-06T05:25:35;12.15;;;9.13;;
20533;SDS011;12929;56.822;26.056;2023-08-06T05:28:02;12.80;;;10.15;;
20533;SDS011;12929;56.822;26.056;2023-08-06T05:30:30;16.13;;;9.23;;
20533;SDS011;12929;56.822;26.056;2023-08-06T05:32:58;14.77;;;9.32;;
20533;SDS011;12929;56.822;26.056;2023-08-06T05:35:26;15.98;;;10.32;;
20533;SDS011;12929;56.822;26.056;2023-08-06T05:37:53;16.58;;;9.93;;
20533;SDS011;12929;56.822;26.056;2023-08-06T05:40:21;13.15;;;10.65;;
20533;SDS011;12929;56.822;26.056;2023-08-06T05:42:48;11.30;;;9.43;;
20533;SDS011;12929;56.822;26.056;2023-08-06T05:45:19;12.45;;;9.32;;
20533;SDS011;12929;56.822;26.056;2023-08-06T05:47:47;13.60;;;9.45;;
20533;SDS011;12929;56.822;26.056;2023-08-06T05:50:19;11.35;;;9.90;;
20533;SDS011;12929;56.822;26.056;2023-08-06T05:52:47;15.77;;;11.77;;
20533;SDS011;12929;56.822;26.056;2023-08-06T05:55:18;14.00;;;10.70;;
20533;SDS011;12929;56.822;26.056;2023-08-06T05:57:47;13.18;;;10.55;;
20533;SDS011;12929;56.822;26.056;2023-08-06T06:00:14;17.65;;;11.50;;
20533;SDS011;12929;56.822;26.056;2023-08-06T06:02:45;16.15;;;11.40;;
20533;SDS011;12929;56.822;26.056;2023-08-06T06:05:13;15.55;;;11.43;;
20533;SDS011;12929;56.822;26.056;2023-08-06T06:07:40;14.73;;;11.05;;
20533;SDS011;12929;56.822;26.056;2023-08-06T06:10:09;14.70;;;11.02;;
20533;SDS011;12929;56.822;26.056;2023-08-06T06:12:38;13.60;;;10.60;;
20533;SDS011;12929;56.822;26.056;2023-08-06T06:15:06;14.63;;;11.75;;
20533;SDS011;12929;56.822;26.056;2023-08-06T06:17:33;13.15;;;10.40;;
20533;SDS011;12929;56.822;26.056;2023-08-06T06:20:02;13.50;;;11.60;;
20533;SDS011;12929;56.822;26.056;2023-08-06T06:22:30;15.40;;;11.70;;
20533;SDS011;12929;56.822;26.056;2023-08-06T06:24:58;14.55;;;11.90;;
20533;SDS011;12929;56.822;26.056;2023-08-06T06:27:26;13.68;;;11.40;;
20533;SDS011;12929;56.822;26.056;2023-08-06T06:29:53;17.10;;;12.20;;
20533;SDS011;12929;56.822;26.056;2023-08-06T06:32:21;16.13;;;12.32;;
20533;SDS011;12929;56.822;26.056;2023-08-06T06:34:49;16.38;;;13.38;;
20533;SDS011;12929;56.822;26.056;2023-08-06T06:37:16;14.57;;;11.65;;
20533;SDS011;12929;56.822;26.056;2023-08-06T06:39:44;14.93;;;12.00;;
20533;SDS011;12929;56.822;26.056;2023-08-06T06:42:11;18.30;;;12.82;;
20533;SDS011;12929;56.822;26.056;2023-08-06T06:44:43;14.73;;;12.60;;
20533;SDS011;12929;56.822;26.056;2023-08-06T06:47:11;18.40;;;13.77;;
20533;SDS011;12929;56.822;26.056;2023-08-06T06:49:38;15.20;;;12.85;;
20533;SDS011;12929;56.822;26.056;2023-08-06T06:52:08;14.98;;;12.52;;
20533;SDS011;12929;56.822;26.056;2023-08-06T06:54:35;14.73;;;12.80;;
20533;SDS011;12929;56.822;26.056;2023-08-06T06:57:03;13.75;;;12.18;;
20533;SDS011;12929;56.822;26.056;2023-08-06T06:59:31;15.48;;;13.38;;
20533;SDS011;12929;56.822;26.056;2023-08-06T07:01:58;20.67;;;14.50;;
20533;SDS011;12929;56.822;26.056;2023-08-06T07:04:26;19.13;;;13.70;;
20533;SDS011;12929;56.822;26.056;2023-08-06T07:06:54;15.80;;;13.05;;
20533;SDS011;12929;56.822;26.056;2023-08-06T07:09:22;18.08;;;14.63;;
20533;SDS011;12929;56.822;26.056;2023-08-06T07:11:50;18.48;;;13.65;;
20533;SDS011;12929;56.822;26.056;2023-08-06T07:14:18;17.33;;;13.52;;
20533;SDS011;12929;56.822;26.056;2023-08-06T07:16:45;16.88;;;13.73;;
20533;SDS011;12929;56.822;26.056;2023-08-06T07:19:13;15.68;;;13.85;;
20533;SDS011;12929;56.822;26.056;2023-08-06T07:21:42;18.63;;;13.85;;
20533;SDS011;12929;56.822;26.056;2023-08-06T07:24:09;16.60;;;13.00;;
20533;SDS011;12929;56.822;26.056;2023-08-06T07:26:38;17.40;;;13.63;;
20533;SDS011;12929;56.822;26.056;2023-08-06T07:29:06;17.05;;;13.98;;
20533;SDS011;12929;56.822;26.056;2023-08-06T07:31:38;15.00;;;13.40;;
20533;SDS011;12929;56.822;26.056;2023-08-06T07:34:10;15.45;;;13.57;;
20533;SDS011;12929;56.822;26.056;2023-08-06T07:36:37;16.00;;;13.93;;
20533;SDS011;12929;56.822;26.056;2023-08-06T07:39:05;16.48;;;14.05;;
20533;SDS011;12929;56.822;26.056;2023-08-06T07:41:33;18.35;;;14.05;;
20533;SDS011;12929;56.822;26.056;2023-08-06T07:44:02;16.73;;;13.68;;
20533;SDS011;12929;56.822;26.056;2023-08-06T07:46:29;18.25;;;13.48;;
20533;SDS011;12929;56.822;26.056;2023-08-06T07:48:57;17.92;;;14.18;;
20533;SDS011;12929;56.822;26.056;2023-08-06T07:51:25;19.95;;;14.27;;
20533;SDS011;12929;56.822;26.056;2023-08-06T07:53:53;15.82;;;13.88;;
20533;SDS011;12929;56.822;26.056;2023-08-06T07:56:20;17.33;;;14.55;;
20533;SDS011;12929;56.822;26.056;2023-08-06T07:58:48;17.75;;;14.05;;
20533;SDS011;12929;56.822;26.056;2023-08-06T08:01:16;15.82;;;14.13;;
20533;SDS011;12929;56.822;26.056;2023-08-06T08:03:43;15.98;;;14.07;;
20533;SDS011;12929;56.822;26.056;2023-08-06T08:06:12;16.73;;;14.43;;
20533;SDS011;12929;56.822;26.056;2023-08-06T08:08:40;16.05;;;14.45;;
20533;SDS011;12929;56.822;26.056;2023-08-06T08:11:07;18.05;;;14.30;;
20533;SDS011;12929;56.822;26.056;2023-08-06T08:13:35;18.33;;;14.70;;
20533;SDS011;12929;56.822;26.056;2023-08-06T08:16:04;18.20;;;13.82;;
20533;SDS011;12929;56.822;26.056;2023-08-06T08:18:31;17.60;;;14.30;;
20533;SDS011;12929;56.822;26.056;2023-08-06T08:21:01;16.65;;;14.48;;
20533;SDS011;12929;56.822;26.056;2023-08-06T08:23:31;16.20;;;14.10;;
20533;SDS011;12929;56.822;26.056;2023-08-06T08:26:08;16.23;;;14.30;;
20533;SDS011;12929;56.822;26.056;2023-08-06T08:28:37;15.65;;;13.45;;
20533;SDS011;12929;56.822;26.056;2023-08-06T08:31:07;15.82;;;14.02;;
20533;SDS011;12929;56.822;26.056;2023-08-06T08:33:37;15.80;;;14.13;;
20533;SDS011;12929;56.822;26.056;2023-08-06T08:36:08;16.50;;;14.82;;
20533;SDS011;12929;56.822;26.056;2023-08-06T08:38:37;15.68;;;14.02;;
20533;SDS011;12929;56.822;26.056;2023-08-06T08:41:09;16.95;;;14.23;;
20533;SDS011;12929;56.822;26.056;2023-08-06T08:43:37;16.95;;;14.18;;
20533;SDS011;12929;56.822;26.056;2023-08-06T08:46:08;17.27;;;15.50;;
20533;SDS011;12929;56.822;26.056;2023-08-06T08:48:41;17.38;;;15.20;;
20533;SDS011;12929;56.822;26.056;2023-08-06T08:51:13;15.55;;;13.90;;
20533;SDS011;12929;56.822;26.056;2023-08-06T08:53:42;16.20;;;14.40;;
20533;SDS011;12929;56.822;26.056;2023-08-06T08:56:20;17.58;;;15.13;;
20533;SDS011;12929;56.822;26.056;2023-08-06T08:58:49;21.98;;;15.63;;
20533;SDS011;12929;56.822;26.056;2023-08-06T09:01:21;16.27;;;14.32;;
20533;SDS011;12929;56.822;26.056;2023-08-06T09:03:49;17.75;;;14.85;;
20533;SDS011;12929;56.822;26.056;2023-08-06T09:06:23;18.42;;;15.23;;
20533;SDS011;12929;56.822;26.056;2023-08-06T09:09:05;17.40;;;14.95;;
20533;SDS011;12929;56.822;26.056;2023-08-06T09:11:39;15.93;;;14.13;;
20533;SDS011;12929;56.822;26.056;2023-08-06T09:14:12;17.27;;;14.63;;
20533;SDS011;12929;56.822;26.056;2023-08-06T09:16:40;18.10;;;13.95;;
20533;SDS011;12929;56.822;26.056;2023-08-06T09:19:09;18.13;;;15.88;;
20533;SDS011;12929;56.822;26.056;2023-08-06T09:21:52;19.27;;;15.23;;
20533;SDS011;12929;56.822;26.056;2023-08-06T09:24:24;19.38;;;15.10;;
20533;SDS011;12929;56.822;26.056;2023-08-06T09:26:53;16.80;;;14.75;;
20533;SDS011;12929;56.822;26.056;2023-08-06T09:29:22;19.08;;;14.75;;
20533;SDS011;12929;56.822;26.056;2023-08-06T09:31:50;33.90;;;15.73;;
20533;SDS011;12929;56.822;26.056;2023-08-06T09:34:23;16.60;;;14.82;;
20533;SDS011;12929;56.822;26.056;2023-08-06T09:36:52;18.75;;;15.30;;
20533;SDS011;12929;56.822;26.056;2023-08-06T09:39:31;18.00;;;16.10;;
20533;SDS011;12929;56.822;26.056;2023-08-06T09:42:03;16.52;;;14.80;;
20533;SDS011;12929;56.822;26.056;2023-08-06T09:44:32;18.27;;;15.80;;
20533;SDS011;12929;56.822;26.056;2023-08-06T09:47:03;17.75;;;15.85;;
20533;SDS011;12929;56.822;26.056;2023-08-06T09:52:02;19.33;;;16.35;;
20533;SDS011;12929;56.822;26.056;2023-08-06T09:54:32;18.95;;;16.23;;
20533;SDS011;12929;56.822;26.056;2023-08-06T09:57:05;18.05;;;16.25;;
20533;SDS011;12929;56.822;26.056;2023-08-06T09:59:33;19.55;;;15.55;;
20533;SDS011;12929;56.822;26.056;2023-08-06T10:02:02;15.90;;;14.27;;
20533;SDS011;12929;56.822;26.056;2023-08-06T10:04:35;16.92;;;14.48;;
20533;SDS011;12929;56.822;26.056;2023-08-06T10:07:09;18.10;;;14.02;;
20533;SDS011;12929;56.822;26.056;2023-08-06T10:09:37;16.42;;;14.35;;
20533;SDS011;12929;56.822;26.056;2023-08-06T10:12:05;17.02;;;13.93;;
20533;SDS011;12929;56.822;26.056;2023-08-06T10:14:36;16.73;;;14.63;;
20533;SDS011;12929;56.822;26.056;2023-08-06T10:17:04;16.55;;;14.07;;
20533;SDS011;12929;56.822;26.056;2023-08-06T10:19:33;14.68;;;13.18;;
20533;SDS011;12929;56.822;26.056;2023-08-06T10:22:11;16.30;;;14.20;;
20533;SDS011;12929;56.822;26.056;2023-08-06T10:24:47;17.58;;;14.20;;
20533;SDS011;12929;56.822;26.056;2023-08-06T10:27:22;15.48;;;13.43;;
20533;SDS011;12929;56.822;26.056;2023-08-06T10:33:00;14.85;;;12.85;;
20533;SDS011;12929;56.822;26.056;2023-08-06T10:35:41;18.17;;;13.95;;
20533;SDS011;12929;56.822;26.056;2023-08-06T10:38:15;16.20;;;12.82;;
20533;SDS011;12929;56.822;26.056;2023-08-06T10:40:48;14.90;;;13.38;;
20533;SDS011;12929;56.822;26.056;2023-08-06T10:43:27;14.88;;;12.80;;
20533;SDS011;12929;56.822;26.056;2023-08-06T10:46:02;15.32;;;13.05;;
20533;SDS011;12929;56.822;26.056;2023-08-06T10:48:39;16.00;;;12.70;;
20533;SDS011;12929;56.822;26.056;2023-08-06T10:51:12;16.70;;;12.88;;
20533;SDS011;12929;56.822;26.056;2023-08-06T10:53:48;17.48;;;12.85;;
20533;SDS011;12929;56.822;26.056;2023-08-06T10:56:17;16.05;;;13.25;;
20533;SDS011;12929;56.822;26.056;2023-08-06T10:58:46;15.23;;;13.35;;
20533;SDS011;12929;56.822;26.056;2023-08-06T11:01:15;14.02;;;12.43;;
20533;SDS011;12929;56.822;26.056;2023-08-06T11:03:44;15.70;;;12.07;;
20533;SDS011;12929;56.822;26.056;2023-08-06T11:06:21;14.63;;;12.73;;
20533;SDS011;12929;56.822;26.056;2023-08-06T11:08:50;17.85;;;13.38;;
20533;SDS011;12929;56.822;26.056;2023-08-06T11:11:22;13.93;;;12.63;;
20533;SDS011;12929;56.822;26.056;2023-08-06T11:13:52;15.38;;;13.82;;
20533;SDS011;12929;56.822;26.056;2023-08-06T11:16:23;15.23;;;13.63;;
20533;SDS011;12929;56.822;26.056;2023-08-06T11:18:54;15.07;;;13.57;;
20533;SDS011;12929;56.822;26.056;2023-08-06T11:21:27;16.88;;;13.48;;
20533;SDS011;12929;56.822;26.056;2023-08-06T11:23:57;14.85;;;13.30;;
20533;SDS011;12929;56.822;26.056;2023-08-06T11:26:25;16.65;;;13.60;;
20533;SDS011;12929;56.822;26.056;2023-08-06T11:28:57;15.00;;;13.45;;
20533;SDS011;12929;56.822;26.056;2023-08-06T11:31:25;14.80;;;13.25;;
20533;SDS011;12929;56.822;26.056;2023-08-06T11:33:53;15.00;;;13.27;;
20533;SDS011;12929;56.822;26.056;2023-08-06T11:36:31;15.00;;;13.43;;
20533;SDS011;12929;56.822;26.056;2023-08-06T11:39:00;18.92;;;12.95;;
20533;SDS011;12929;56.822;26.056;2023-08-06T11:41:29;14.90;;;13.30;;
20533;SDS011;12929;56.822;26.056;2023-08-06T11:44:04;14.25;;;12.75;;
20533;SDS011;12929;56.822;26.056;2023-08-06T11:46:50;14.57;;;12.68;;
20533;SDS011;12929;56.822;26.056;2023-08-06T11:52:08;18.80;;;12.15;;
20533;SDS011;12929;56.822;26.056;2023-08-06T11:54:38;14.77;;;12.43;;
20533;SDS011;12929;56.822;26.056;2023-08-06T11:57:06;14.18;;;12.43;;
20533;SDS011;12929;56.822;26.056;2023-08-06T11:59:34;15.82;;;13.00;;
20533;SDS011;12929;56.822;26.056;2023-08-06T12:02:02;14.45;;;12.88;;
20533;SDS011;12929;56.822;26.056;2023-08-06T12:07:56;14.85;;;12.52;;
20533;SDS011;12929;56.822;26.056;2023-08-06T12:10:26;16.05;;;13.57;;
20533;SDS011;12929;56.822;26.056;2023-08-06T12:12:55;14.20;;;12.70;;
20533;SDS011;12929;56.822;26.056;2023-08-06T12:15:25;14.35;;;12.85;;
20533;SDS011;12929;56.822;26.056;2023-08-06T12:17:52;14.35;;;12.75;;
20533;SDS011;12929;56.822;26.056;2023-08-06T12:20:23;14.25;;;12.80;;
20533;SDS011;12929;56.822;26.056;2023-08-06T12:22:51;14.15;;;12.30;;
20533;SDS011;12929;56.822;26.056;2023-08-06T12:25:19;17.40;;;13.13;;
20533;SDS011;12929;56.822;26.056;2023-08-06T12:27:47;15.88;;;12.98;;
20533;SDS011;12929;56.822;26.056;2023-08-06T12:30:15;13.95;;;11.57;;
20533;SDS011;12929;56.822;26.056;2023-08-06T12:32:43;15.75;;;13.10;;
20533;SDS011;12929;56.822;26.056;2023-08-06T12:35:11;18.00;;;13.07;;
20533;SDS011;12929;56.822;26.056;2023-08-06T12:37:38;13.95;;;12.45;;
20533;SDS011;12929;56.822;26.056;2023-08-06T12:40:06;14.20;;;12.15;;
20533;SDS011;12929;56.822;26.056;2023-08-06T12:42:54;13.88;;;12.40;;
20533;SDS011;12929;56.822;26.056;2023-08-06T12:45:22;14.00;;;12.23;;
20533;SDS011;12929;56.822;26.056;2023-08-06T12:47:50;15.15;;;12.45;;
20533;SDS011;12929;56.822;26.056;2023-08-06T12:50:18;13.75;;;12.32;;
20533;SDS011;12929;56.822;26.056;2023-08-06T12:52:46;15.52;;;13.25;;
20533;SDS011;12929;56.822;26.056;2023-08-06T12:55:13;13.88;;;12.48;;
20533;SDS011;12929;56.822;26.056;2023-08-06T12:57:41;15.45;;;13.07;;
20533;SDS011;12929;56.822;26.056;2023-08-06T13:00:25;14.15;;;12.75;;
20533;SDS011;12929;56.822;26.056;2023-08-06T13:02:54;14.48;;;12.98;;
20533;SDS011;12929;56.822;26.056;2023-08-06T13:05:23;14.63;;;13.10;;
20533;SDS011;12929;56.822;26.056;2023-08-06T13:07:51;14.02;;;12.20;;
20533;SDS011;12929;56.822;26.056;2023-08-06T13:10:19;14.98;;;12.55;;
20533;SDS011;12929;56.822;26.056;2023-08-06T13:12:47;14.52;;;12.32;;
20533;SDS011;12929;56.822;26.056;2023-08-06T13:15:16;13.88;;;12.48;;
20533;SDS011;12929;56.822;26.056;2023-08-06T13:17:43;15.25;;;13.27;;
20533;SDS011;12929;56.822;26.056;2023-08-06T13:20:11;15.48;;;12.88;;
20533;SDS011;12929;56.822;26.056;2023-08-06T13:22:39;16.35;;;12.93;;
20533;SDS011;12929;56.822;26.056;2023-08-06T13:25:07;14.48;;;12.93;;
20533;SDS011;12929;56.822;26.056;2023-08-06T13:27:34;16.23;;;13.73;;
20533;SDS011;12929;56.822;26.056;2023-08-06T13:30:02;15.50;;;12.85;;
20533;SDS011;12929;56.822;26.056;2023-08-06T13:32:30;14.95;;;13.25;;
20533;SDS011;12929;56.822;26.056;2023-08-06T13:34:59;15.80;;;12.73;;
20533;SDS011;12929;56.822;26.056;2023-08-06T13:37:27;15.90;;;13.02;;
20533;SDS011;12929;56.822;26.056;2023-08-06T13:39:54;17.00;;;13.85;;
20533;SDS011;12929;56.822;26.056;2023-08-06T13:42:22;15.68;;;14.07;;
20533;SDS011;12929;56.822;26.056;2023-08-06T13:44:50;16.73;;;13.20;;
20533;SDS011;12929;56.822;26.056;2023-08-06T13:47:17;17.02;;;13.15;;
20533;SDS011;12929;56.822;26.056;2023-08-06T13:49:45;16.48;;;14.73;;
20533;SDS011;12929;56.822;26.056;2023-08-06T13:52:12;15.43;;;13.73;;
20533;SDS011;12929;56.822;26.056;2023-08-06T13:54:48;14.90;;;13.40;;
20533;SDS011;12929;56.822;26.056;2023-08-06T13:57:15;15.98;;;14.27;;
20533;SDS011;12929;56.822;26.056;2023-08-06T13:59:44;15.77;;;14.30;;
20533;SDS011;12929;56.822;26.056;2023-08-06T14:02:12;15.30;;;13.75;;
20533;SDS011;12929;56.822;26.056;2023-08-06T14:04:40;16.88;;;13.82;;
20533;SDS011;12929;56.822;26.056;2023-08-06T14:07:07;15.63;;;14.07;;
20533;SDS011;12929;56.822;26.056;2023-08-06T14:09:35;15.18;;;13.50;;
20533;SDS011;12929;56.822;26.056;2023-08-06T14:12:02;14.90;;;13.43;;
20533;SDS011;12929;56.822;26.056;2023-08-06T14:14:30;14.80;;;13.25;;
20533;SDS011;12929;56.822;26.056;2023-08-06T14:16:58;17.15;;;13.35;;
20533;SDS011;12929;56.822;26.056;2023-08-06T14:19:26;15.35;;;13.73;;
20533;SDS011;12929;56.822;26.056;2023-08-06T14:21:53;15.60;;;13.93;;
20533;SDS011;12929;56.822;26.056;2023-08-06T14:24:23;15.27;;;13.65;;
20533;SDS011;12929;56.822;26.056;2023-08-06T14:26:51;15.15;;;13.75;;
20533;SDS011;12929;56.822;26.056;2023-08-06T14:29:19;17.13;;;14.32;;
20533;SDS011;12929;56.822;26.056;2023-08-06T14:31:47;14.90;;;13.40;;
20533;SDS011;12929;56.822;26.056;2023-08-06T14:34:14;15.55;;;13.52;;
20533;SDS011;12929;56.822;26.056;2023-08-06T14:36:42;13.88;;;12.57;;
20533;SDS011;12929;56.822;26.056;2023-08-06T14:39:10;16.38;;;13.70;;
20533;SDS011;12929;56.822;26.056;2023-08-06T14:41:37;14.80;;;13.30;;